Time;durP1;ratioP1;P1;durP2;ratioP2;P2;SDS_P1;SDS_P2;PMS_P1;PMS_P2;Temp;Humidity;BMP_temperature;BMP_pressure;BME280_temperature;BME280_humidity;BME280_pressure;Samples;Min_cycle;Max_cycle;Signal;HPM_P1;HPM_P2
2021/08/18 00:01:13;;;;;;;5.20;4.70;;;;;;;20.30;100.00;96047.94;5053755;28;20197;-82
2021/08/18 00:03:41;;;;;;;8.27;4.73;;;;;;;20.23;100.00;96055.19;5053734;28;20202;-83
2021/08/18 00:06:08;;;;;;;4.63;4.23;;;;;;;20.06;100.00;96061.16;5053872;28;20194;-83
2021/08/18 00:08:35;;;;;;;5.17;4.77;;;;;;;20.28;100.00;96058.81;5053684;28;20288;-83
2021/08/18 00:11:03;;;;;;;5.50;5.00;;;;;;;20.35;100.00;96054.22;5053986;28;20201;-82
2021/08/18 00:13:30;;;;;;;5.10;4.60;;;;;;;20.60;100.00;96056.78;5053639;28;20198;-82
2021/08/18 00:15:58;;;;;;;5.20;4.60;;;;;;;21.03;100.00;96049.59;5053627;28;20663;-82
2021/08/18 00:18:26;;;;;;;5.20;4.17;;;;;;;21.23;100.00;96047.41;5053535;28;20285;-83
2021/08/18 00:20:54;;;;;;;8.57;4.60;;;;;;;21.39;100.00;96050.47;5053643;28;20197;-83
2021/08/18 00:23:21;;;;;;;8.23;4.80;;;;;;;21.52;100.00;96040.38;5053398;28;20204;-83
2021/08/18 00:25:48;;;;;;;6.93;4.87;;;;;;;21.44;100.00;96046.09;5053517;28;20273;-83
2021/08/18 00:28:15;;;;;;;5.70;4.13;;;;;;;21.43;100.00;96040.94;5053040;28;20193;-83
2021/08/18 00:30:43;;;;;;;4.93;4.23;;;;;;;21.31;100.00;96027.56;5053701;28;20229;-83
2021/08/18 00:33:10;;;;;;;4.90;4.40;;;;;;;21.45;100.00;96028.97;5053382;28;20202;-83
2021/08/18 00:35:39;;;;;;;5.13;4.63;;;;;;;21.56;100.00;96025.47;5053269;28;20212;-83
2021/08/18 00:38:06;;;;;;;5.20;4.70;;;;;;;21.64;100.00;96016.28;5052868;28;20221;-83
2021/08/18 00:40:33;;;;;;;5.30;4.80;;;;;;;21.49;100.00;96023.97;5053525;28;20203;-83
2021/08/18 00:43:00;;;;;;;7.07;4.50;;;;;;;21.44;100.00;96015.84;5053210;28;20205;-83
2021/08/18 00:45:27;;;;;;;6.70;5.73;;;;;;;21.44;100.00;96005.97;5053427;28;20236;-83
2021/08/18 00:47:57;;;;;;;4.90;4.47;;;;;;;21.38;100.00;96006.91;5053030;28;20642;-82
2021/08/18 00:50:27;;;;;;;5.00;4.50;;;;;;;21.47;100.00;96000.13;5053036;28;20660;-83
2021/08/18 00:52:56;;;;;;;5.27;4.70;;;;;;;21.47;100.00;96005.47;5052757;28;20204;-83
2021/08/18 00:55:25;;;;;;;5.90;4.83;;;;;;;21.38;100.00;96006.09;5052832;28;20616;-83
2021/08/18 00:57:54;;;;;;;7.67;5.00;;;;;;;21.32;100.00;96000.59;5052794;28;20224;-83
2021/08/18 01:00:23;;;;;;;5.40;4.37;;;;;;;21.32;100.00;96002.44;5052796;28;20240;-82
2021/08/18 01:02:50;;;;;;;5.37;4.87;;;;;;;21.19;100.00;96002.66;5052671;28;20288;-82
2021/08/18 01:05:19;;;;;;;6.20;4.83;;;;;;;21.08;100.00;95997.09;5052720;28;20292;-82
2021/08/18 01:07:49;;;;;;;4.93;4.53;;;;;;;21.18;100.00;95998.38;5052502;28;20234;-83
2021/08/18 01:10:21;;;;;;;6.73;5.27;;;;;;;21.24;100.00;95994.78;5052672;28;20206;-83
2021/08/18 01:12:48;;;;;;;6.97;5.07;;;;;;;21.15;100.00;95994.31;5052614;28;20220;-83
2021/08/18 01:15:19;;;;;;;5.40;4.90;;;;;;;21.12;100.00;95992.09;5051647;28;20689;-83
2021/08/18 01:17:48;;;;;;;7.80;5.43;;;;;;;21.16;100.00;96003.94;5052289;28;20241;-83
2021/08/18 01:20:18;;;;;;;7.63;4.67;;;;;;;21.23;100.00;95996.63;5052723;28;20287;-82
2021/08/18 01:22:45;;;;;;;7.00;5.30;;;;;;;21.09;100.00;95992.56;5052352;28;20202;-82
2021/08/18 01:25:13;;;;;;;4.70;4.20;;;;;;;21.11;100.00;95988.59;5052415;28;20198;-83
2021/08/18 01:27:47;;;;;;;6.87;4.70;;;;;;;21.13;100.00;95983.84;5052209;28;20595;-83
2021/08/18 01:30:17;;;;;;;5.27;4.70;;;;;;;21.11;100.00;95988.59;5052394;28;20193;-82
2021/08/18 01:32:46;;;;;;;5.17;4.60;;;;;;;21.05;100.00;95988.72;5052357;28;20202;-82
2021/08/18 01:35:22;;;;;;;7.90;4.90;;;;;;;21.25;100.00;95991.06;5052271;28;20230;-82
2021/08/18 01:37:50;;;;;;;5.00;4.50;;;;;;;21.20;100.00;95988.25;5051775;28;20300;-83
2021/08/18 01:40:17;;;;;;;6.77;4.80;;;;;;;21.01;100.00;95980.34;5052397;28;20198;-83
2021/08/18 01:42:45;;;;;;;6.10;4.80;;;;;;;20.87;100.00;95970.94;5052303;28;20209;-83
2021/08/18 01:45:19;;;;;;;7.07;4.83;;;;;;;20.79;100.00;95968.63;5052573;28;20279;-83
2021/08/18 01:47:47;;;;;;;5.43;4.50;;;;;;;21.11;100.00;95974.44;5051903;28;20192;-83
2021/08/18 01:50:15;;;;;;;5.07;4.67;;;;;;;20.78;100.00;95972.31;5051714;28;20198;-82
2021/08/18 01:52:42;;;;;;;5.50;4.27;;;;;;;21.03;100.00;95967.59;5052024;28;20281;-83
2021/08/18 01:55:11;;;;;;;4.87;4.47;;;;;;;20.97;100.00;95968.50;5052027;28;20237;-83
2021/08/18 01:57:40;;;;;;;5.97;4.13;;;;;;;20.80;100.00;95973.72;5051645;28;20714;-83
2021/08/18 02:00:09;;;;;;;5.07;4.57;;;;;;;20.86;100.00;95963.97;5051618;28;20193;-83
2021/08/18 02:02:37;;;;;;;5.57;4.27;;;;;;;21.06;100.00;95966.28;5051982;28;20621;-82
2021/08/18 02:05:07;;;;;;;6.10;4.60;;;;;;;21.17;100.00;95978.88;5051734;28;20205;-82
2021/08/18 02:07:34;;;;;;;4.93;4.43;;;;;;;21.16;100.00;95987.09;5051410;28;20192;-83
2021/08/18 02:10:01;;;;;;;5.00;4.50;;;;;;;21.20;100.00;95985.59;5052059;28;20202;-82
2021/08/18 02:12:29;;;;;;;4.57;4.17;;;;;;;21.18;100.00;95990.38;5051905;28;20590;-83
2021/08/18 02:14:56;;;;;;;4.87;4.30;;;;;;;20.80;100.00;95988.91;5051676;28;20202;-83
2021/08/18 02:17:23;;;;;;;4.37;4.07;;;;;;;20.87;100.00;95984.28;5051640;28;20312;-83
2021/08/18 02:19:50;;;;;;;6.03;4.77;;;;;;;20.86;100.00;95980.81;5051566;28;20653;-83
2021/08/18 02:22:19;;;;;;;4.87;4.47;;;;;;;20.74;100.00;95984.50;5051446;28;20260;-83
2021/08/18 02:24:46;;;;;;;4.50;4.17;;;;;;;20.91;100.00;95985.44;5051485;28;20277;-83
2021/08/18 02:27:13;;;;;;;5.17;4.67;;;;;;;20.30;100.00;95981.22;5053232;28;20198;-83
2021/08/18 02:29:41;;;;;;;5.40;4.90;;;;;;;20.44;100.00;95985.34;5056056;28;20623;-83
2021/08/18 02:32:08;;;;;;;5.70;5.20;;;;;;;20.47;100.00;95987.53;5055229;28;20198;-83
2021/08/18 02:34:35;;;;;;;5.57;4.90;;;;;;;20.40;100.00;95973.44;5055649;28;20208;-83
2021/08/18 02:37:03;;;;;;;7.27;5.20;;;;;;;20.44;100.00;95971.97;5055331;28;20225;-83
2021/08/18 02:39:32;;;;;;;5.40;4.27;;;;;;;20.68;100.00;95970.22;5055540;28;20205;-82
2021/08/18 02:42:00;;;;;;;5.13;4.37;;;;;;;20.31;100.00;95975.66;5054921;28;20310;-83
2021/08/18 02:44:27;;;;;;;5.07;4.57;;;;;;;19.99;100.00;95972.38;5055429;28;20670;-83
2021/08/18 02:46:54;;;;;;;5.47;4.60;;;;;;;19.99;100.00;95974.25;5055529;28;20281;-83
2021/08/18 02:49:22;;;;;;;5.37;4.40;;;;;;;19.70;100.00;95977.44;5055066;28;20230;-83
2021/08/18 02:51:49;;;;;;;5.07;4.43;;;;;;;19.66;100.00;95978.91;5055116;28;20256;-82
2021/08/18 02:54:16;;;;;;;6.70;4.37;;;;;;;19.67;100.00;95974.41;5055273;28;20296;-82
2021/08/18 02:56:45;;;;;;;5.97;5.07;;;;;;;19.73;100.00;95984.19;5055321;28;20197;-83
2021/08/18 02:59:12;;;;;;;8.40;5.00;;;;;;;20.08;100.00;95984.34;5054961;28;20251;-83
2021/08/18 03:01:39;;;;;;;5.67;4.27;;;;;;;20.25;100.00;95978.41;5054956;28;20237;-83
2021/08/18 03:04:07;;;;;;;4.83;4.43;;;;;;;20.13;100.00;95984.50;5054994;28;20244;-83
2021/08/18 03:06:34;;;;;;;5.30;4.80;;;;;;;20.14;100.00;95982.66;5054947;28;20671;-82
2021/08/18 03:09:01;;;;;;;5.43;4.67;;;;;;;20.31;100.00;95980.19;5054665;28;20234;-83
2021/08/18 03:11:28;;;;;;;7.03;4.80;;;;;;;20.37;100.00;95982.75;5055188;28;20627;-82
2021/08/18 03:13:57;;;;;;;6.83;4.43;;;;;;;20.43;100.00;95973.81;5054729;28;20198;-83
2021/08/18 03:16:24;;;;;;;17.63;6.07;;;;;;;20.33;100.00;95986.09;5054862;28;20209;-83
2021/08/18 03:18:51;;;;;;;12.00;5.17;;;;;;;20.35;100.00;95982.16;5054309;28;20308;-82
2021/08/18 03:21:19;;;;;;;13.47;4.50;;;;;;;20.52;100.00;95989.56;5054700;28;20229;-83
2021/08/18 03:23:46;;;;;;;11.23;4.53;;;;;;;20.59;100.00;95988.41;5054836;28;20193;-83
2021/08/18 03:26:14;;;;;;;6.20;4.63;;;;;;;20.65;100.00;95987.50;5054424;28;20194;-83
2021/08/18 03:28:41;;;;;;;24.63;6.93;;;;;;;20.81;100.00;95986.00;5054444;28;20608;-83
2021/08/18 03:31:09;;;;;;;5.10;4.30;;;;;;;20.80;100.00;95983.59;5054467;28;20201;-83
2021/08/18 03:33:37;;;;;;;6.30;5.03;;;;;;;20.72;100.00;95984.72;5054382;28;20198;-83
2021/08/18 03:36:04;;;;;;;7.30;4.70;;;;;;;20.68;100.00;95980.91;5054642;28;20604;-82
2021/08/18 03:38:32;;;;;;;7.77;5.17;;;;;;;20.80;100.00;95980.91;5053617;28;20290;-82
2021/08/18 03:40:59;;;;;;;9.83;5.40;;;;;;;20.78;100.00;95988.31;5054264;28;20288;-83
2021/08/18 03:43:26;;;;;;;5.40;4.90;;;;;;;20.86;100.00;95988.00;5054393;28;20623;-82
2021/08/18 03:45:53;;;;;;;5.20;4.70;;;;;;;20.88;100.00;95983.22;5053988;28;20198;-82
2021/08/18 03:48:22;;;;;;;9.37;5.40;;;;;;;20.90;100.00;95987.31;5054334;28;20226;-82
2021/08/18 03:50:49;;;;;;;10.70;4.93;;;;;;;20.81;100.00;95987.88;5054370;28;20566;-82
2021/08/18 03:53:17;;;;;;;6.73;5.03;;;;;;;20.75;100.00;95991.44;5054109;28;20209;-82
2021/08/18 03:55:45;;;;;;;7.17;5.07;;;;;;;20.74;100.00;95998.66;5054149;28;20283;-82
2021/08/18 03:58:12;;;;;;;6.07;5.47;;;;;;;20.70;100.00;96004.69;5053646;28;20228;-82
2021/08/18 04:00:39;;;;;;;11.73;5.50;;;;;;;20.69;100.00;96013.75;5054301;28;20285;-79
2021/08/18 04:03:06;;;;;;;8.90;5.40;;;;;;;20.62;100.00;96017.34;5053838;28;20701;-81
2021/08/18 04:05:35;;;;;;;9.90;5.30;;;;;;;20.55;100.00;96015.81;5053976;28;20280;-80
2021/08/18 04:08:06;;;;;;;13.37;5.27;;;;;;;20.63;100.00;96018.94;5053704;28;20198;-81
2021/08/18 04:10:34;;;;;;;10.83;5.83;;;;;;;20.60;100.00;96027.41;5053839;28;20186;-81
2021/08/18 04:13:01;;;;;;;7.20;5.23;;;;;;;20.71;100.00;96027.69;5053399;28;20248;-81
2021/08/18 04:15:30;;;;;;;7.63;5.57;;;;;;;20.85;100.00;96024.59;5053652;28;20292;-81
2021/08/18 04:17:58;;;;;;;9.53;4.80;;;;;;;20.93;100.00;96027.97;5053438;28;20612;-81
2021/08/18 04:20:25;;;;;;;6.50;5.60;;;;;;;20.89;100.00;96027.63;5053592;28;20252;-81
2021/08/18 04:22:54;;;;;;;11.27;9.77;;;;;;;20.26;100.00;96041.41;5053212;28;20230;-81
2021/08/18 04:25:21;;;;;;;14.90;8.90;;;;;;;20.27;100.00;96033.19;5053803;28;20276;-81
2021/08/18 04:27:49;;;;;;;17.23;8.57;;;;;;;20.27;100.00;96038.53;5053693;28;20223;-81
2021/08/18 04:30:17;;;;;;;11.23;7.80;;;;;;;20.25;100.00;96034.44;5053259;28;20237;-80
2021/08/18 04:32:45;;;;;;;10.17;7.50;;;;;;;20.14;100.00;96023.50;5053523;28;20233;-80
2021/08/18 04:35:14;;;;;;;8.47;6.73;;;;;;;20.40;100.00;96025.00;5051138;28;20209;-81
2021/08/18 04:37:41;;;;;;;6.03;5.27;;;;;;;20.61;100.00;96022.91;5052957;28;20225;-81
2021/08/18 04:40:12;;;;;;;5.90;5.20;;;;;;;20.84;100.00;96016.78;5053110;28;20212;-81
2021/08/18 04:42:41;;;;;;;8.43;5.13;;;;;;;21.00;100.00;96012.66;5052838;28;20201;-81
2021/08/18 04:45:10;;;;;;;7.30;5.40;;;;;;;21.04;100.00;96025.31;5053287;28;20396;-80
2021/08/18 04:47:38;;;;;;;6.03;5.47;;;;;;;21.22;100.00;96013.72;5052040;28;20577;-80
2021/08/18 04:50:06;;;;;;;6.47;5.37;;;;;;;21.26;100.00;96014.88;5050383;28;20208;-80
2021/08/18 04:52:33;;;;;;;7.10;5.20;;;;;;;21.30;100.00;96016.06;5052854;28;20288;-81
2021/08/18 04:55:01;;;;;;;7.07;6.40;;;;;;;21.28;100.00;96014.66;5053000;28;20362;-80
2021/08/18 04:57:29;;;;;;;6.07;5.50;;;;;;;21.28;100.00;96011.97;5052560;28;20201;-81
2021/08/18 04:59:57;;;;;;;7.37;5.53;;;;;;;21.32;100.00;96011.28;5053210;28;20198;-81
2021/08/18 05:02:24;;;;;;;8.47;5.63;;;;;;;21.40;100.00;96020.84;5052641;28;20198;-81
2021/08/18 05:04:51;;;;;;;6.03;5.53;;;;;;;21.37;100.00;96023.97;5053127;28;20302;-81
2021/08/18 05:07:18;;;;;;;7.50;5.53;;;;;;;21.48;100.00;96033.06;5052344;28;20209;-81
2021/08/18 05:09:46;;;;;;;6.83;6.13;;;;;;;21.53;100.00;96039.31;5052755;28;20736;-81
2021/08/18 05:12:13;;;;;;;6.53;5.60;;;;;;;21.63;100.00;96030.72;5052477;28;20317;-81
2021/08/18 05:14:42;;;;;;;7.10;6.40;;;;;;;21.64;100.00;96029.66;5052916;28;20193;-81
2021/08/18 05:17:09;;;;;;;6.27;5.67;;;;;;;21.66;100.00;96048.97;5052192;28;20297;-81
2021/08/18 05:19:36;;;;;;;6.23;5.60;;;;;;;21.71;100.00;96056.28;5052458;28;20218;-81
2021/08/18 05:22:04;;;;;;;7.50;6.37;;;;;;;21.69;100.00;96063.75;5052232;28;20689;-81
2021/08/18 05:24:31;;;;;;;6.63;6.03;;;;;;;21.67;100.00;96065.81;5052488;28;20205;-81
2021/08/18 05:26:59;;;;;;;6.57;5.93;;;;;;;21.81;100.00;96080.59;5052529;28;20642;-81
2021/08/18 05:29:26;;;;;;;6.10;5.50;;;;;;;21.88;100.00;96073.25;5052262;28;20194;-81
2021/08/18 05:31:55;;;;;;;6.47;5.87;;;;;;;22.02;100.00;96087.19;5052199;28;20201;-81
2021/08/18 05:34:22;;;;;;;6.07;5.47;;;;;;;22.04;100.00;96085.09;5052626;28;20236;-81
2021/08/18 05:36:49;;;;;;;6.53;5.87;;;;;;;22.22;100.00;96092.19;5052042;28;20696;-81
2021/08/18 05:39:16;;;;;;;8.17;5.10;;;;;;;22.21;100.00;96099.41;5051911;28;20312;-81
2021/08/18 05:41:44;;;;;;;6.33;5.70;;;;;;;22.25;100.00;96110.47;5052669;28;20205;-81
2021/08/18 05:44:11;;;;;;;9.73;5.70;;;;;;;22.15;100.00;96118.28;5052080;28;20212;-81
2021/08/18 05:46:38;;;;;;;6.37;5.83;;;;;;;22.22;100.00;96105.59;5052287;28;20267;-81
2021/08/18 05:49:07;;;;;;;6.13;5.53;;;;;;;22.27;100.00;96113.72;5051932;28;20252;-81
2021/08/18 05:51:34;;;;;;;6.30;5.70;;;;;;;22.22;100.00;96103.72;5051709;28;20667;-81
2021/08/18 05:54:01;;;;;;;5.07;4.53;;;;;;;22.19;100.00;96100.69;5051686;28;20236;-81
2021/08/18 05:56:29;;;;;;;5.90;5.40;;;;;;;22.14;100.00;96085.31;5051978;28;20248;-81
2021/08/18 05:58:56;;;;;;;7.37;5.70;;;;;;;22.12;100.00;96071.34;5051509;28;20308;-81
2021/08/18 06:01:23;;;;;;;9.00;4.87;;;;;;;22.13;100.00;96056.09;5051552;28;20236;-81
2021/08/18 06:03:51;;;;;;;9.17;5.80;;;;;;;22.12;100.00;96039.22;5051910;28;20277;-81
2021/08/18 06:06:20;;;;;;;11.50;5.90;;;;;;;22.19;100.00;96036.47;5051963;28;20570;-81
2021/08/18 06:08:47;;;;;;;7.57;6.07;;;;;;;22.21;100.00;96029.00;5051369;28;20194;-81
2021/08/18 06:11:14;;;;;;;7.00;6.13;;;;;;;22.36;100.00;96039.19;5051871;28;20280;-81
2021/08/18 06:13:41;;;;;;;8.13;6.50;;;;;;;22.37;100.00;96028.25;5051544;28;20628;-81
2021/08/18 06:16:09;;;;;;;14.17;7.50;;;;;;;22.45;100.00;96035.09;5051760;28;20234;-81
2021/08/18 06:18:36;;;;;;;8.43;6.83;;;;;;;22.64;100.00;96060.63;5051425;28;20261;-81
2021/08/18 06:21:03;;;;;;;17.43;6.33;;;;;;;22.39;100.00;96066.31;5051812;28;20198;-81
2021/08/18 06:23:33;;;;;;;7.90;6.10;;;;;;;22.15;100.00;96076.25;5051569;28;20738;-81
2021/08/18 06:26:01;;;;;;;11.37;6.13;;;;;;;22.21;100.00;96079.88;5051630;28;20248;-81
2021/08/18 06:28:28;;;;;;;10.00;6.33;;;;;;;22.31;100.00;96075.53;5051692;28;20633;-81
2021/08/18 06:30:56;;;;;;;11.57;5.73;;;;;;;22.39;100.00;96076.22;5051460;28;20205;-81
2021/08/18 06:33:24;;;;;;;7.63;5.53;;;;;;;22.48;100.00;96082.81;5051390;28;20198;-81
2021/08/18 06:35:51;;;;;;;6.80;6.10;;;;;;;22.61;100.00;96089.75;5051551;28;20198;-81
2021/08/18 06:38:18;;;;;;;7.00;5.67;;;;;;;22.60;100.00;96088.13;5051043;28;20261;-80
2021/08/18 06:40:47;;;;;;;14.40;6.77;;;;;;;22.59;100.00;96091.88;5051540;28;20288;-81
2021/08/18 06:43:14;;;;;;;7.63;6.10;;;;;;;22.66;100.00;96092.53;5051296;28;20288;-81
2021/08/18 06:45:41;;;;;;;8.80;6.23;;;;;;;22.67;100.00;96097.66;5051243;28;20229;-81
2021/08/18 06:48:09;;;;;;;9.13;5.77;;;;;;;22.63;100.00;96095.69;5051248;28;20756;-81
2021/08/18 06:50:36;;;;;;;9.67;6.00;;;;;;;22.79;100.00;96095.75;5051393;28;20237;-81
2021/08/18 06:53:03;;;;;;;12.90;6.60;;;;;;;22.78;100.00;96098.66;5051221;28;20285;-80
2021/08/18 06:55:31;;;;;;;9.07;5.83;;;;;;;22.73;100.00;96099.38;5051073;28;20597;-81
2021/08/18 06:57:59;;;;;;;8.93;6.10;;;;;;;22.68;100.00;96101.94;5051173;28;20198;-81
2021/08/18 07:00:27;;;;;;;10.33;6.23;;;;;;;22.64;100.00;96100.00;5051565;28;20198;-80
2021/08/18 07:02:54;;;;;;;8.10;6.00;;;;;;;22.76;100.00;96106.94;5051216;28;20194;-81
2021/08/18 07:05:23;;;;;;;8.50;6.27;;;;;;;22.70;100.00;96099.03;5051190;28;20667;-81
2021/08/18 07:07:50;;;;;;;7.83;6.03;;;;;;;22.72;100.00;96097.75;5051509;28;20577;-81
2021/08/18 07:10:17;;;;;;;7.17;6.47;;;;;;;22.81;100.00;96097.38;5051176;28;20663;-81
2021/08/18 07:12:45;;;;;;;9.33;6.37;;;;;;;22.79;100.00;96090.38;5051119;28;20197;-81
2021/08/18 07:15:15;;;;;;;9.47;6.57;;;;;;;22.95;100.00;96090.69;5054063;28;20229;-81
2021/08/18 07:17:42;;;;;;;13.23;6.70;;;;;;;23.12;100.00;96099.56;5054997;28;20224;-81
2021/08/18 07:20:12;;;;;;;11.13;6.37;;;;;;;23.23;100.00;96100.53;5055059;28;20312;-81
2021/08/18 07:22:39;;;;;;;12.10;6.57;;;;;;;23.00;100.00;96094.28;5054398;28;20212;-81
2021/08/18 07:25:07;;;;;;;8.63;6.73;;;;;;;22.86;100.00;96103.66;5054733;28;20198;-80
2021/08/18 07:27:34;;;;;;;7.97;7.17;;;;;;;23.12;100.00;96101.44;5054920;28;20277;-80
2021/08/18 07:30:01;;;;;;;8.33;6.70;;;;;;;23.21;100.00;96106.16;5054852;28;20196;-81
2021/08/18 07:32:30;;;;;;;8.23;6.87;;;;;;;23.43;100.00;96118.84;5054416;28;20632;-81
2021/08/18 07:34:58;;;;;;;7.83;7.13;;;;;;;23.38;100.00;96127.63;5054317;28;20201;-81
2021/08/18 07:37:27;;;;;;;8.73;7.10;;;;;;;23.40;100.00;96124.69;5054629;28;20194;-81
2021/08/18 07:39:55;;;;;;;6.90;6.20;;;;;;;23.52;100.00;96116.56;5054717;28;20651;-81
2021/08/18 07:42:23;;;;;;;9.97;6.63;;;;;;;23.55;100.00;96116.88;5054246;28;20198;-81
2021/08/18 07:44:50;;;;;;;9.73;6.23;;;;;;;23.74;100.00;96117.50;5054481;28;20206;-81
2021/08/18 07:47:18;;;;;;;8.07;6.57;;;;;;;23.67;100.00;96108.78;5054476;28;20716;-81
2021/08/18 07:49:46;;;;;;;10.57;6.57;;;;;;;23.64;100.00;96109.25;5054236;28;20285;-81
2021/08/18 07:52:14;;;;;;;10.73;6.77;;;;;;;23.59;100.00;96111.84;5054125;28;20285;-81
2021/08/18 07:54:41;;;;;;;10.20;7.03;;;;;;;23.60;100.00;96102.75;5053714;28;20594;-81
2021/08/18 07:57:08;;;;;;;7.10;6.20;;;;;;;23.58;100.00;96111.03;5053941;28;20663;-81
2021/08/18 07:59:35;;;;;;;7.90;7.20;;;;;;;23.50;100.00;96114.13;5053999;28;20812;-80
2021/08/18 08:02:03;;;;;;;7.33;6.63;;;;;;;23.43;100.00;96114.28;5053865;28;20208;-81
2021/08/18 08:04:30;;;;;;;10.10;7.57;;;;;;;23.53;100.00;96102.91;5053960;28;20248;-81
2021/08/18 08:06:59;;;;;;;7.60;6.70;;;;;;;23.51;100.00;96110.38;5053960;28;20251;-81
2021/08/18 08:09:26;;;;;;;7.83;6.50;;;;;;;23.71;100.00;96115.28;5054032;28;20271;-81
2021/08/18 08:11:54;;;;;;;8.20;7.40;;;;;;;23.55;100.00;96108.84;5053471;28;20220;-81
2021/08/18 08:14:21;;;;;;;10.40;6.50;;;;;;;23.48;100.00;96109.03;5053781;28;20738;-81
2021/08/18 08:16:48;;;;;;;8.90;6.93;;;;;;;23.68;100.00;96099.69;5053725;28;20208;-81
2021/08/18 08:19:15;;;;;;;9.03;7.30;;;;;;;23.81;100.00;96106.59;5053935;28;20299;-81
2021/08/18 08:21:43;;;;;;;7.90;6.10;;;;;;;23.84;100.00;96114.97;5053336;28;20206;-80
2021/08/18 08:24:11;;;;;;;8.40;7.60;;;;;;;23.88;100.00;96112.59;5053302;28;20284;-81
2021/08/18 08:26:39;;;;;;;8.33;6.37;;;;;;;24.09;100.00;96109.13;5053509;28;20198;-81
2021/08/18 08:29:06;;;;;;;7.23;6.53;;;;;;;23.98;100.00;96114.63;5053704;28;20190;-81
2021/08/18 08:31:33;;;;;;;7.43;6.73;;;;;;;24.02;100.00;96115.75;5053559;28;20198;-81
2021/08/18 08:34:00;;;;;;;11.83;7.53;;;;;;;24.02;100.00;96110.38;5053202;28;20234;-81
2021/08/18 08:36:28;;;;;;;10.13;6.80;;;;;;;24.20;100.00;96102.03;5053724;28;20638;-81
2021/08/18 08:38:55;;;;;;;6.80;6.10;;;;;;;24.29;100.00;96105.91;5053085;28;20221;-81
2021/08/18 08:41:24;;;;;;;7.83;7.13;;;;;;;24.29;100.00;96111.28;5053562;28;20200;-81
2021/08/18 08:43:52;;;;;;;7.40;6.43;;;;;;;24.26;100.00;96109.09;5052923;28;20205;-81
2021/08/18 08:46:20;;;;;;;8.83;7.13;;;;;;;24.39;100.00;96100.66;5053472;28;20248;-81
2021/08/18 08:48:48;;;;;;;8.80;6.80;;;;;;;24.50;100.00;96101.63;5052987;28;20237;-80
2021/08/18 08:51:16;;;;;;;8.80;7.33;;;;;;;24.51;100.00;96102.44;5053053;28;20667;-80
2021/08/18 08:53:43;;;;;;;8.67;7.47;;;;;;;24.57;100.00;96104.94;5052748;28;20204;-81
2021/08/18 08:56:10;;;;;;;10.77;6.60;;;;;;;24.61;100.00;96102.56;5053231;28;20235;-81
2021/08/18 08:58:39;;;;;;;8.23;6.43;;;;;;;24.34;100.00;96100.59;5053046;28;20339;-81
2021/08/18 09:01:06;;;;;;;7.43;6.47;;;;;;;24.40;100.00;96107.69;5053284;28;20276;-81
2021/08/18 09:03:36;;;;;;;8.37;6.43;;;;;;;24.50;100.00;96107.00;5052456;28;20289;-81
2021/08/18 09:06:08;;;;;;;8.40;6.77;;;;;;;24.64;100.00;96112.81;5053136;28;20216;-81
2021/08/18 09:08:48;;;;;;;9.43;6.83;;;;;;;24.70;100.00;96116.34;5052880;28;20578;-81
2021/08/18 09:11:17;;;;;;;7.53;6.67;;;;;;;24.68;100.00;96108.56;5052555;28;20212;-81
2021/08/18 09:13:47;;;;;;;7.43;6.67;;;;;;;24.73;100.00;96108.63;5052816;28;20579;-81
2021/08/18 09:16:16;;;;;;;12.60;7.63;;;;;;;24.83;100.00;96115.97;5052755;28;20269;-81
2021/08/18 09:18:46;;;;;;;11.27;6.90;;;;;;;24.73;100.00;96108.63;5052603;28;20284;-81
2021/08/18 09:21:37;;;;;;;8.40;7.20;;;;;;;24.83;100.00;96110.59;5052298;28;20202;-81
2021/08/18 09:24:23;;;;;;;8.90;7.30;;;;;;;24.98;100.00;96108.06;5052913;28;20617;-82
2021/08/18 09:26:52;;;;;;;7.20;6.50;;;;;;;25.12;100.00;96105.81;5052421;28;20186;-81
2021/08/18 09:29:45;;;;;;;6.80;6.03;;;;;;;25.22;100.00;96108.59;5052126;28;20580;-81
2021/08/18 09:32:31;;;;;;;7.40;6.70;;;;;;;25.30;100.00;96110.81;5033357;28;20209;-81
2021/08/18 09:35:01;;;;;;;13.00;7.07;;;;;;;25.25;100.00;96116.16;5052715;28;20567;-81
2021/08/18 09:37:31;;;;;;;13.68;6.93;;;;;;;25.14;100.00;96109.84;5051633;28;20194;-81
2021/08/18 09:39:59;;;;;;;11.30;6.90;;;;;;;25.33;100.00;96113.00;5051932;28;20226;-81
2021/08/18 09:42:30;;;;;;;8.50;6.45;;;;;;;25.40;100.00;96115.47;5052284;28;20202;-81
2021/08/18 09:45:19;;;;;;;13.88;6.93;;;;;;;25.69;100.00;96115.16;5052246;28;20178;-81
2021/08/18 09:48:04;;;;;;;8.17;6.87;;;;;;;25.66;100.00;96118.38;5051931;28;20200;-81
2021/08/18 09:50:40;;;;;;;9.32;6.93;;;;;;;25.77;100.00;96103.91;5052252;28;20186;-82
2021/08/18 09:53:09;;;;;;;7.63;6.25;;;;;;;26.04;100.00;96114.63;5052210;28;20624;-82
2021/08/18 09:55:37;;;;;;;8.07;6.68;;;;;;;26.85;100.00;96124.19;5051874;28;20280;-81
2021/08/18 09:58:17;;;;;;;6.88;6.28;;;;;;;27.27;100.00;96115.94;5051843;28;20201;-81
2021/08/18 10:00:47;;;;;;;13.63;7.20;;;;;;;27.60;100.00;96119.16;5051610;28;20300;-81
2021/08/18 10:03:14;;;;;;;7.93;7.10;;;;;;;27.72;100.00;96123.22;5051720;28;20248;-81
2021/08/18 10:05:42;;;;;;;8.68;6.90;;;;;;;27.60;100.00;96124.56;5051799;28;20194;-81
2021/08/18 10:08:09;;;;;;;9.73;6.85;;;;;;;28.20;100.00;96112.91;5051682;28;20207;-82
2021/08/18 10:10:39;;;;;;;9.02;7.15;;;;;;;28.62;100.00;96114.41;5051530;28;20198;-82
2021/08/18 10:13:08;;;;;;;6.82;6.22;;;;;;;28.33;100.00;96116.09;5051638;28;20203;-81
2021/08/18 10:15:35;;;;;;;10.05;7.40;;;;;;;28.52;100.00;96103.66;5051734;28;20202;-81
2021/08/18 10:18:05;;;;;;;7.57;6.65;;;;;;;28.73;100.00;96106.25;5051862;28;20276;-82
2021/08/18 10:20:33;;;;;;;6.97;6.10;;;;;;;29.03;100.00;96102.63;5051852;28;20317;-82
2021/08/18 10:23:02;;;;;;;8.57;6.40;;;;;;;28.87;100.00;96110.78;5051226;28;20237;-81
2021/08/18 10:25:45;;;;;;;7.07;6.38;;;;;;;28.87;100.00;96101.84;5051732;28;20263;-81
2021/08/18 10:28:13;;;;;;;9.07;6.38;;;;;;;28.81;100.00;96095.66;5051481;28;20186;-82
2021/08/18 10:30:52;;;;;;;12.60;6.53;;;;;;;29.06;100.00;96099.31;5051862;28;20586;-82
2021/08/18 10:33:57;;;;;;;7.55;6.88;;;;;;;29.45;100.00;96101.25;5051196;28;20236;-82
2021/08/18 10:37:02;;;;;;;7.95;7.18;;;;;;;29.78;100.00;96094.19;5051820;28;20285;-82
2021/08/18 10:39:36;;;;;;;9.63;6.93;;;;;;;29.78;100.00;96094.19;5051611;28;20606;-82
2021/08/18 10:42:05;;;;;;;8.05;7.05;;;;;;;29.84;100.00;96090.34;5051613;28;20240;-82
2021/08/18 10:44:41;;;;;;;8.15;7.10;;;;;;;29.73;100.00;96086.13;5051966;28;20348;-82
2021/08/18 10:47:22;;;;;;;8.20;6.85;;;;;;;29.51;100.00;96084.69;5051329;28;20190;-83
2021/08/18 10:49:51;;;;;;;8.30;6.60;;;;;;;29.75;100.00;96078.50;5055690;28;20229;-82
2021/08/18 10:52:49;;;;;;;9.85;6.90;;;;;;;29.72;100.00;96085.34;5055227;28;20220;-81
2021/08/18 10:55:18;;;;;;;9.40;6.85;;;;;;;29.85;100.00;96075.72;5054768;28;20233;-82
2021/08/18 10:57:48;;;;;;;7.97;6.28;;;;;;;30.15;100.00;96062.94;5055364;28;20205;-82
2021/08/18 11:00:17;;;;;;;7.72;6.90;;;;;;;29.98;100.00;96058.78;5055383;28;20287;-82
2021/08/18 11:03:03;;;;;;;8.15;6.18;;;;;;;30.36;100.00;96055.41;5054410;28;20194;-81
2021/08/18 11:05:42;;;;;;;7.65;6.50;;;;;;;30.38;100.00;96055.91;5055432;28;20573;-82
2021/08/18 11:08:16;;;;;;;7.68;6.82;;;;;;;30.47;100.00;96054.19;5055260;28;20578;-82
2021/08/18 11:11:11;;;;;;;7.95;6.60;;;;;;;30.38;100.00;96053.19;5055304;28;20209;-81
2021/08/18 11:13:40;;;;;;;12.10;6.85;;;;;;;30.39;100.00;96041.28;5054773;28;20293;-82
2021/08/18 11:16:09;;;;;;;7.88;6.82;;;;;;;30.67;100.00;96043.06;5054958;28;20197;-83
2021/08/18 11:18:37;;;;;;;11.00;6.47;;;;;;;30.66;100.00;96040.66;5054734;28;20204;-81
2021/08/18 11:21:05;;;;;;;7.13;6.45;;;;;;;30.87;100.00;96041.22;5054567;28;20222;-82
2021/08/18 11:23:35;;;;;;;10.45;6.30;;;;;;;30.59;100.00;96040.19;5054723;28;20205;-82
2021/08/18 11:26:04;;;;;;;10.02;6.68;;;;;;;31.02;100.00;96039.06;5054750;28;20209;-82
2021/08/18 11:28:34;;;;;;;10.65;6.97;;;;;;;31.19;100.00;96032.28;5054650;28;20702;-82
2021/08/18 11:31:05;;;;;;;6.93;6.32;;;;;;;31.25;100.00;96036.53;5055058;28;20200;-83
2021/08/18 11:33:34;;;;;;;6.22;5.60;;;;;;;31.15;100.00;96031.28;5054953;28;20189;-82